sensor_id;sensor_type;location;lat;lon;timestamp;temperature;humidity
18175;DHT22;9212;50.894;16.714;2022-08-06T00:02:10;22.10;99.90
18175;DHT22;9212;50.894;16.714;2022-08-06T00:04:36;22.20;99.90
18175;DHT22;9212;50.894;16.714;2022-08-06T00:07:04;22.00;99.90
18175;DHT22;9212;50.894;16.714;2022-08-06T00:12:00;21.30;99.90
18175;DHT22;9212;50.894;16.714;2022-08-06T00:14:27;22.00;99.90
18175;DHT22;9212;50.894;16.714;2022-08-06T00:16:55;22.20;99.90
18175;DHT22;9212;50.894;16.714;2022-08-06T00:19:22;22.00;99.90
18175;DHT22;9212;50.894;16.714;2022-08-06T00:21:50;21.90;99.90
18175;DHT22;9212;50.894;16.714;2022-08-06T00:24:17;21.90;99.90
18175;DHT22;9212;50.894;16.714;2022-08-06T00:26:44;22.00;99.90
18175;DHT22;9212;50.894;16.714;2022-08-06T00:29:13;21.90;99.90
18175;DHT22;9212;50.894;16.714;2022-08-06T00:31:40;22.00;99.90
18175;DHT22;9212;50.894;16.714;2022-08-06T00:34:07;21.70;99.90
18175;DHT22;9212;50.894;16.714;2022-08-06T00:36:34;21.80;99.90
18175;DHT22;9212;50.894;16.714;2022-08-06T00:39:03;21.80;99.90
18175;DHT22;9212;50.894;16.714;2022-08-06T00:41:31;21.70;99.90
18175;DHT22;9212;50.894;16.714;2022-08-06T00:43:59;21.70;99.90
18175;DHT22;9212;50.894;16.714;2022-08-06T00:46:27;21.70;99.90
18175;DHT22;9212;50.894;16.714;2022-08-06T00:48:54;21.70;99.90
18175;DHT22;9212;50.894;16.714;2022-08-06T00:51:22;21.60;99.90
18175;DHT22;9212;50.894;16.714;2022-08-06T00:53:50;21.80;99.90
18175;DHT22;9212;50.894;16.714;2022-08-06T00:56:17;21.70;99.90
18175;DHT22;9212;50.894;16.714;2022-08-06T00:58:44;21.60;99.90
18175;DHT22;9212;50.894;16.714;2022-08-06T01:01:11;21.40;99.90
18175;DHT22;9212;50.894;16.714;2022-08-06T01:03:39;21.70;99.90
18175;DHT22;9212;50.894;16.714;2022-08-06T01:06:07;21.70;99.90
18175;DHT22;9212;50.894;16.714;2022-08-06T01:08:33;21.70;99.90
18175;DHT22;9212;50.894;16.714;2022-08-06T01:11:00;21.70;99.90
18175;DHT22;9212;50.894;16.714;2022-08-06T01:13:27;21.90;99.90
18175;DHT22;9212;50.894;16.714;2022-08-06T01:16:02;21.60;99.90
18175;DHT22;9212;50.894;16.714;2022-08-06T01:18:33;21.50;99.90
18175;DHT22;9212;50.894;16.714;2022-08-06T01:21:13;21.50;99.90
18175;DHT22;9212;50.894;16.714;2022-08-06T01:23:57;21.50;99.90
18175;DHT22;9212;50.894;16.714;2022-08-06T01:26:39;21.40;99.90
18175;DHT22;9212;50.894;16.714;2022-08-06T01:29:12;21.40;99.90
18175;DHT22;9212;50.894;16.714;2022-08-06T01:31:46;21.50;99.90
18175;DHT22;9212;50.894;16.714;2022-08-06T01:34:17;21.50;99.90
18175;DHT22;9212;50.894;16.714;2022-08-06T01:36:49;21.60;99.90
18175;DHT22;9212;50.894;16.714;2022-08-06T01:39:19;21.50;99.90
18175;DHT22;9212;50.894;16.714;2022-08-06T01:41:51;21.20;99.90
18175;DHT22;9212;50.894;16.714;2022-08-06T01:44:23;21.30;99.90
18175;DHT22;9212;50.894;16.714;2022-08-06T01:46:57;21.40;99.90
18175;DHT22;9212;50.894;16.714;2022-08-06T01:49:27;21.10;99.90
18175;DHT22;9212;50.894;16.714;2022-08-06T01:51:57;21.10;99.90
18175;DHT22;9212;50.894;16.714;2022-08-06T01:54:26;21.10;99.90
18175;DHT22;9212;50.894;16.714;2022-08-06T01:56:56;21.00;99.90
18175;DHT22;9212;50.894;16.714;2022-08-06T01:59:30;21.00;99.90
18175;DHT22;9212;50.894;16.714;2022-08-06T02:01:58;20.80;99.90
18175;DHT22;9212;50.894;16.714;2022-08-06T02:04:29;20.80;99.90
18175;DHT22;9212;50.894;16.714;2022-08-06T02:06:58;20.60;99.90
18175;DHT22;9212;50.894;16.714;2022-08-06T02:09:26;20.00;99.90
18175;DHT22;9212;50.894;16.714;2022-08-06T02:11:56;19.90;99.90
18175;DHT22;9212;50.894;16.714;2022-08-06T02:14:28;19.70;99.90
18175;DHT22;9212;50.894;16.714;2022-08-06T02:16:57;19.60;99.90
18175;DHT22;9212;50.894;16.714;2022-08-06T02:19:26;19.30;99.90
18175;DHT22;9212;50.894;16.714;2022-08-06T02:21:55;19.30;99.90
18175;DHT22;9212;50.894;16.714;2022-08-06T02:24:26;18.90;99.90
18175;DHT22;9212;50.894;16.714;2022-08-06T02:26:55;18.80;99.90
18175;DHT22;9212;50.894;16.714;2022-08-06T02:29:27;18.70;99.90
18175;DHT22;9212;50.894;16.714;2022-08-06T02:31:55;18.50;99.90
18175;DHT22;9212;50.894;16.714;2022-08-06T02:34:22;18.50;99.90
18175;DHT22;9212;50.894;16.714;2022-08-06T02:36:55;18.30;99.90
18175;DHT22;9212;50.894;16.714;2022-08-06T02:39:26;18.20;99.90
18175;DHT22;9212;50.894;16.714;2022-08-06T02:42:01;18.20;99.90
18175;DHT22;9212;50.894;16.714;2022-08-06T02:44:38;18.40;99.90
18175;DHT22;9212;50.894;16.714;2022-08-06T02:47:08;18.30;99.90
18175;DHT22;9212;50.894;16.714;2022-08-06T02:49:42;18.20;99.90
18175;DHT22;9212;50.894;16.714;2022-08-06T02:52:15;18.20;99.90
18175;DHT22;9212;50.894;16.714;2022-08-06T02:54:48;18.20;99.90
18175;DHT22;9212;50.894;16.714;2022-08-06T02:57:20;18.20;99.90
18175;DHT22;9212;50.894;16.714;2022-08-06T02:59:53;18.20;99.90
18175;DHT22;9212;50.894;16.714;2022-08-06T03:02:23;17.90;99.90
18175;DHT22;9212;50.894;16.714;2022-08-06T03:04:54;17.80;99.90
18175;DHT22;9212;50.894;16.714;2022-08-06T03:07:23;17.50;99.90
18175;DHT22;9212;50.894;16.714;2022-08-06T03:09:52;17.80;99.90
18175;DHT22;9212;50.894;16.714;2022-08-06T03:12:20;17.40;99.90
18175;DHT22;9212;50.894;16.714;2022-08-06T03:14:49;17.50;99.90
18175;DHT22;9212;50.894;16.714;2022-08-06T03:17:19;16.80;99.90
18175;DHT22;9212;50.894;16.714;2022-08-06T03:19:48;17.00;99.90
18175;DHT22;9212;50.894;16.714;2022-08-06T03:22:18;16.60;99.90
18175;DHT22;9212;50.894;16.714;2022-08-06T03:24:46;16.80;99.90
18175;DHT22;9212;50.894;16.714;2022-08-06T03:27:15;16.70;99.90
18175;DHT22;9212;50.894;16.714;2022-08-06T03:32:12;16.50;99.90
18175;DHT22;9212;50.894;16.714;2022-08-06T03:34:41;16.70;99.90
18175;DHT22;9212;50.894;16.714;2022-08-06T03:37:21;16.50;99.90
18175;DHT22;9212;50.894;16.714;2022-08-06T03:39:50;16.50;99.90
18175;DHT22;9212;50.894;16.714;2022-08-06T03:44:44;15.60;99.90
18175;DHT22;9212;50.894;16.714;2022-08-06T03:47:19;16.50;99.90
18175;DHT22;9212;50.894;16.714;2022-08-06T03:49:52;16.30;99.90
18175;DHT22;9212;50.894;16.714;2022-08-06T03:52:26;15.80;99.90
18175;DHT22;9212;50.894;16.714;2022-08-06T03:54:55;16.00;99.90
18175;DHT22;9212;50.894;16.714;2022-08-06T03:57:26;15.90;99.90
18175;DHT22;9212;50.894;16.714;2022-08-06T03:59:58;15.90;99.90
18175;DHT22;9212;50.894;16.714;2022-08-06T04:02:35;15.40;99.90
18175;DHT22;9212;50.894;16.714;2022-08-06T04:05:02;15.60;99.90
18175;DHT22;9212;50.894;16.714;2022-08-06T04:07:31;15.60;99.90
18175;DHT22;9212;50.894;16.714;2022-08-06T04:09:59;15.50;99.90
18175;DHT22;9212;50.894;16.714;2022-08-06T04:12:27;15.50;99.90
18175;DHT22;9212;50.894;16.714;2022-08-06T04:14:55;15.40;99.90
18175;DHT22;9212;50.894;16.714;2022-08-06T04:17:23;15.60;99.90
18175;DHT22;9212;50.894;16.714;2022-08-06T04:19:53;15.50;99.90
18175;DHT22;9212;50.894;16.714;2022-08-06T04:22:20;15.40;99.90
18175;DHT22;9212;50.894;16.714;2022-08-06T04:24:47;15.60;99.90
18175;DHT22;9212;50.894;16.714;2022-08-06T04:27:15;15.70;99.90
18175;DHT22;9212;50.894;16.714;2022-08-06T04:29:43;15.80;99.90
18175;DHT22;9212;50.894;16.714;2022-08-06T04:32:12;15.50;99.90
18175;DHT22;9212;50.894;16.714;2022-08-06T04:34:41;15.40;99.90
18175;DHT22;9212;50.894;16.714;2022-08-06T04:37:11;15.40;99.90
18175;DHT22;9212;50.894;16.714;2022-08-06T04:39:39;15.40;99.90
18175;DHT22;9212;50.894;16.714;2022-08-06T04:42:06;15.40;99.90
18175;DHT22;9212;50.894;16.714;2022-08-06T04:44:35;15.40;99.90
18175;DHT22;9212;50.894;16.714;2022-08-06T04:47:04;15.70;99.90
18175;DHT22;9212;50.894;16.714;2022-08-06T04:49:31;15.40;99.90
18175;DHT22;9212;50.894;16.714;2022-08-06T04:51:58;15.10;99.90
18175;DHT22;9212;50.894;16.714;2022-08-06T04:54:27;15.40;99.90
18175;DHT22;9212;50.894;16.714;2022-08-06T04:56:53;15.60;99.90
18175;DHT22;9212;50.894;16.714;2022-08-06T04:59:20;15.50;99.90
18175;DHT22;9212;50.894;16.714;2022-08-06T05:01:47;15.50;99.90
18175;DHT22;9212;50.894;16.714;2022-08-06T05:04:14;15.50;99.90
18175;DHT22;9212;50.894;16.714;2022-08-06T05:06:46;15.50;99.90
18175;DHT22;9212;50.894;16.714;2022-08-06T05:09:20;15.50;99.90
18175;DHT22;9212;50.894;16.714;2022-08-06T05:11:52;15.60;99.90
18175;DHT22;9212;50.894;16.714;2022-08-06T05:14:27;15.60;99.90
18175;DHT22;9212;50.894;16.714;2022-08-06T05:16:56;15.60;99.90
18175;DHT22;9212;50.894;16.714;2022-08-06T05:19:28;15.60;99.90
18175;DHT22;9212;50.894;16.714;2022-08-06T05:21:58;15.50;99.90
18175;DHT22;9212;50.894;16.714;2022-08-06T05:24:27;15.60;99.90
18175;DHT22;9212;50.894;16.714;2022-08-06T05:26:57;15.80;99.90
18175;DHT22;9212;50.894;16.714;2022-08-06T05:29:24;15.60;99.90
18175;DHT22;9212;50.894;16.714;2022-08-06T05:31:57;15.50;99.90
18175;DHT22;9212;50.894;16.714;2022-08-06T05:34:24;14.90;99.90
18175;DHT22;9212;50.894;16.714;2022-08-06T05:36:51;15.40;99.90
18175;DHT22;9212;50.894;16.714;2022-08-06T05:39:18;15.90;99.90
18175;DHT22;9212;50.894;16.714;2022-08-06T05:41:45;15.60;99.90
18175;DHT22;9212;50.894;16.714;2022-08-06T05:44:13;15.70;99.90
18175;DHT22;9212;50.894;16.714;2022-08-06T05:46:44;15.90;99.90
18175;DHT22;9212;50.894;16.714;2022-08-06T05:49:15;15.90;99.90
18175;DHT22;9212;50.894;16.714;2022-08-06T05:51:50;15.60;99.90
18175;DHT22;9212;50.894;16.714;2022-08-06T05:54:22;15.70;99.90
18175;DHT22;9212;50.894;16.714;2022-08-06T05:56:51;15.70;99.90
18175;DHT22;9212;50.894;16.714;2022-08-06T05:59:26;15.60;99.90
18175;DHT22;9212;50.894;16.714;2022-08-06T06:01:54;15.70;99.90
18175;DHT22;9212;50.894;16.714;2022-08-06T06:04:23;16.00;99.90
18175;DHT22;9212;50.894;16.714;2022-08-06T06:06:50;15.70;99.90
18175;DHT22;9212;50.894;16.714;2022-08-06T06:09:18;15.80;99.90
18175;DHT22;9212;50.894;16.714;2022-08-06T06:11:45;16.00;99.90
18175;DHT22;9212;50.894;16.714;2022-08-06T06:14:33;16.00;99.90
18175;DHT22;9212;50.894;16.714;2022-08-06T06:17:10;15.70;99.90
18175;DHT22;9212;50.894;16.714;2022-08-06T06:19:42;15.80;99.90
18175;DHT22;9212;50.894;16.714;2022-08-06T06:22:17;15.90;99.90
18175;DHT22;9212;50.894;16.714;2022-08-06T06:24:50;15.90;99.90
18175;DHT22;9212;50.894;16.714;2022-08-06T06:27:24;15.70;99.90
18175;DHT22;9212;50.894;16.714;2022-08-06T06:29:59;15.90;99.90
18175;DHT22;9212;50.894;16.714;2022-08-06T06:32:38;15.50;99.90
18175;DHT22;9212;50.894;16.714;2022-08-06T06:35:17;15.90;99.90
18175;DHT22;9212;50.894;16.714;2022-08-06T06:37:53;15.90;99.90
18175;DHT22;9212;50.894;16.714;2022-08-06T06:40:33;15.80;99.90
18175;DHT22;9212;50.894;16.714;2022-08-06T06:43:05;15.80;99.90
18175;DHT22;9212;50.894;16.714;2022-08-06T06:45:53;16.20;99.90
18175;DHT22;9212;50.894;16.714;2022-08-06T06:48:25;15.80;99.90
18175;DHT22;9212;50.894;16.714;2022-08-06T06:50:59;16.00;99.90
18175;DHT22;9212;50.894;16.714;2022-08-06T06:53:32;16.10;99.90
18175;DHT22;9212;50.894;16.714;2022-08-06T06:56:01;16.10;99.90
18175;DHT22;9212;50.894;16.714;2022-08-06T06:58:39;16.00;99.90
18175;DHT22;9212;50.894;16.714;2022-08-06T07:01:11;16.10;99.90
18175;DHT22;9212;50.894;16.714;2022-08-06T07:03:39;16.10;99.90
18175;DHT22;9212;50.894;16.714;2022-08-06T07:08:38;16.10;99.90
18175;DHT22;9212;50.894;16.714;2022-08-06T07:11:11;16.20;99.90
18175;DHT22;9212;50.894;16.714;2022-08-06T07:13:41;16.30;99.90
18175;DHT22;9212;50.894;16.714;2022-08-06T07:16:11;16.30;99.90
18175;DHT22;9212;50.894;16.714;2022-08-06T07:18:39;17.40;99.90
18175;DHT22;9212;50.894;16.714;2022-08-06T07:21:06;16.60;99.90
18175;DHT22;9212;50.894;16.714;2022-08-06T07:23:33;15.60;99.90
18175;DHT22;9212;50.894;16.714;2022-08-06T07:26:02;16.50;99.90
18175;DHT22;9212;50.894;16.714;2022-08-06T07:28:30;16.50;99.90
18175;DHT22;9212;50.894;16.714;2022-08-06T07:30:59;16.50;99.90
18175;DHT22;9212;50.894;16.714;2022-08-06T07:33:28;16.50;99.90
18175;DHT22;9212;50.894;16.714;2022-08-06T07:35:57;16.60;99.90
18175;DHT22;9212;50.894;16.714;2022-08-06T07:38:27;16.40;99.90
18175;DHT22;9212;50.894;16.714;2022-08-06T07:40:58;16.50;99.90
18175;DHT22;9212;50.894;16.714;2022-08-06T07:43:29;16.40;99.90
18175;DHT22;9212;50.894;16.714;2022-08-06T07:46:00;16.40;99.90
18175;DHT22;9212;50.894;16.714;2022-08-06T07:48:33;16.60;99.90
18175;DHT22;9212;50.894;16.714;2022-08-06T07:51:02;16.80;99.90
18175;DHT22;9212;50.894;16.714;2022-08-06T07:53:30;16.70;99.90
18175;DHT22;9212;50.894;16.714;2022-08-06T07:55:58;16.70;99.90
18175;DHT22;9212;50.894;16.714;2022-08-06T07:58:26;16.70;99.90
18175;DHT22;9212;50.894;16.714;2022-08-06T08:00:53;16.60;99.90
18175;DHT22;9212;50.894;16.714;2022-08-06T08:03:20;16.40;99.90
18175;DHT22;9212;50.894;16.714;2022-08-06T08:06:07;16.40;99.90
18175;DHT22;9212;50.894;16.714;2022-08-06T08:08:44;16.50;99.90
18175;DHT22;9212;50.894;16.714;2022-08-06T08:11:13;16.60;99.90
18175;DHT22;9212;50.894;16.714;2022-08-06T08:13:41;17.10;99.90
18175;DHT22;9212;50.894;16.714;2022-08-06T08:16:10;17.00;99.90
18175;DHT22;9212;50.894;16.714;2022-08-06T08:18:39;17.00;99.90
18175;DHT22;9212;50.894;16.714;2022-08-06T08:21:08;16.80;99.90
18175;DHT22;9212;50.894;16.714;2022-08-06T08:23:38;16.80;99.90
18175;DHT22;9212;50.894;16.714;2022-08-06T08:26:06;17.30;99.90
18175;DHT22;9212;50.894;16.714;2022-08-06T08:28:33;17.50;99.90
18175;DHT22;9212;50.894;16.714;2022-08-06T08:31:00;17.80;99.90
18175;DHT22;9212;50.894;16.714;2022-08-06T08:33:29;18.60;99.90
18175;DHT22;9212;50.894;16.714;2022-08-06T08:35:59;18.80;99.90
18175;DHT22;9212;50.894;16.714;2022-08-06T08:38:29;18.90;99.90
18175;DHT22;9212;50.894;16.714;2022-08-06T08:41:00;19.10;99.90
18175;DHT22;9212;50.894;16.714;2022-08-06T08:43:33;18.80;99.90
18175;DHT22;9212;50.894;16.714;2022-08-06T08:46:01;18.10;99.90
18175;DHT22;9212;50.894;16.714;2022-08-06T08:48:34;17.80;99.90
18175;DHT22;9212;50.894;16.714;2022-08-06T08:53:36;17.60;99.90
18175;DHT22;9212;50.894;16.714;2022-08-06T08:56:03;17.70;99.90
18175;DHT22;9212;50.894;16.714;2022-08-06T09:03:30;19.20;99.90
18175;DHT22;9212;50.894;16.714;2022-08-06T09:06:02;19.60;99.90
18175;DHT22;9212;50.894;16.714;2022-08-06T09:08:31;20.20;99.90
18175;DHT22;9212;50.894;16.714;2022-08-06T09:13:26;20.10;99.90
18175;DHT22;9212;50.894;16.714;2022-08-06T09:15:54;20.00;99.90
18175;DHT22;9212;50.894;16.714;2022-08-06T09:18:22;20.30;99.90
18175;DHT22;9212;50.894;16.714;2022-08-06T09:20:50;19.60;99.90
18175;DHT22;9212;50.894;16.714;2022-08-06T09:23:23;20.20;99.90
18175;DHT22;9212;50.894;16.714;2022-08-06T09:25:52;20.20;99.90
18175;DHT22;9212;50.894;16.714;2022-08-06T09:28:33;20.80;99.90
18175;DHT22;9212;50.894;16.714;2022-08-06T09:31:04;20.80;99.90
18175;DHT22;9212;50.894;16.714;2022-08-06T09:33:34;20.00;99.90
18175;DHT22;9212;50.894;16.714;2022-08-06T09:36:03;20.10;99.90
18175;DHT22;9212;50.894;16.714;2022-08-06T09:38:31;20.70;99.90
18175;DHT22;9212;50.894;16.714;2022-08-06T09:41:08;20.50;99.90
18175;DHT22;9212;50.894;16.714;2022-08-06T09:43:36;20.80;99.90
18175;DHT22;9212;50.894;16.714;2022-08-06T09:46:04;21.20;99.90
18175;DHT22;9212;50.894;16.714;2022-08-06T09:48:31;21.10;99.90
18175;DHT22;9212;50.894;16.714;2022-08-06T09:50:59;20.80;99.90
18175;DHT22;9212;50.894;16.714;2022-08-06T09:53:28;20.70;99.90
18175;DHT22;9212;50.894;16.714;2022-08-06T09:55:56;21.10;99.90
18175;DHT22;9212;50.894;16.714;2022-08-06T09:58:30;21.70;99.90
18175;DHT22;9212;50.894;16.714;2022-08-06T10:01:11;21.50;99.90
18175;DHT22;9212;50.894;16.714;2022-08-06T10:03:46;21.30;99.90
18175;DHT22;9212;50.894;16.714;2022-08-06T10:09:08;20.50;99.90
18175;DHT22;9212;50.894;16.714;2022-08-06T10:12:14;20.50;99.90
18175;DHT22;9212;50.894;16.714;2022-08-06T10:14:41;21.90;99.90
18175;DHT22;9212;50.894;16.714;2022-08-06T10:17:10;21.80;99.90
18175;DHT22;9212;50.894;16.714;2022-08-06T10:19:39;22.00;99.90
18175;DHT22;9212;50.894;16.714;2022-08-06T10:24:44;23.10;99.90
18175;DHT22;9212;50.894;16.714;2022-08-06T10:27:13;23.20;99.90
18175;DHT22;9212;50.894;16.714;2022-08-06T10:29:44;23.40;99.90
18175;DHT22;9212;50.894;16.714;2022-08-06T10:32:15;23.80;99.90
18175;DHT22;9212;50.894;16.714;2022-08-06T10:34:44;24.60;99.90
18175;DHT22;9212;50.894;16.714;2022-08-06T10:37:12;24.10;99.90
18175;DHT22;9212;50.894;16.714;2022-08-06T10:39:42;24.30;99.90
18175;DHT22;9212;50.894;16.714;2022-08-06T10:42:13;24.60;99.90
18175;DHT22;9212;50.894;16.714;2022-08-06T10:44:43;24.70;99.90
18175;DHT22;9212;50.894;16.714;2022-08-06T10:47:11;25.20;99.90
18175;DHT22;9212;50.894;16.714;2022-08-06T10:49:39;24.80;99.90
18175;DHT22;9212;50.894;16.714;2022-08-06T10:52:09;25.00;99.90
18175;DHT22;9212;50.894;16.714;2022-08-06T10:54:37;23.70;99.90
18175;DHT22;9212;50.894;16.714;2022-08-06T10:57:04;23.90;99.90
18175;DHT22;9212;50.894;16.714;2022-08-06T10:59:32;23.30;99.90
18175;DHT22;9212;50.894;16.714;2022-08-06T11:02:05;23.20;99.90
18175;DHT22;9212;50.894;16.714;2022-08-06T11:04:47;22.80;99.90
18175;DHT22;9212;50.894;16.714;2022-08-06T11:07:46;23.10;99.90
18175;DHT22;9212;50.894;16.714;2022-08-06T11:10:32;23.10;99.90
18175;DHT22;9212;50.894;16.714;2022-08-06T11:13:11;22.90;99.90
18175;DHT22;9212;50.894;16.714;2022-08-06T11:15:41;22.70;99.90
18175;DHT22;9212;50.894;16.714;2022-08-06T11:18:12;23.00;99.90
18175;DHT22;9212;50.894;16.714;2022-08-06T11:20:41;23.10;99.90
18175;DHT22;9212;50.894;16.714;2022-08-06T11:23:31;23.30;99.90
18175;DHT22;9212;50.894;16.714;2022-08-06T11:25:59;23.00;99.90
18175;DHT22;9212;50.894;16.714;2022-08-06T11:28:58;22.70;99.90
18175;DHT22;9212;50.894;16.714;2022-08-06T11:31:42;23.20;99.90
18175;DHT22;9212;50.894;16.714;2022-08-06T11:34:14;23.30;99.90
18175;DHT22;9212;50.894;16.714;2022-08-06T11:36:47;23.70;99.90
18175;DHT22;9212;50.894;16.714;2022-08-06T11:39:15;23.60;99.90
18175;DHT22;9212;50.894;16.714;2022-08-06T11:41:53;23.70;99.90
18175;DHT22;9212;50.894;16.714;2022-08-06T11:44:21;24.20;99.90
18175;DHT22;9212;50.894;16.714;2022-08-06T11:46:49;24.30;99.90
18175;DHT22;9212;50.894;16.714;2022-08-06T11:49:37;25.20;99.90
18175;DHT22;9212;50.894;16.714;2022-08-06T11:52:05;25.70;99.90
18175;DHT22;9212;50.894;16.714;2022-08-06T11:54:33;25.50;99.90
18175;DHT22;9212;50.894;16.714;2022-08-06T11:57:21;25.60;99.90
18175;DHT22;9212;50.894;16.714;2022-08-06T12:00:10;23.90;99.90
18175;DHT22;9212;50.894;16.714;2022-08-06T12:02:51;23.90;99.90
18175;DHT22;9212;50.894;16.714;2022-08-06T12:05:38;24.00;99.90
18175;DHT22;9212;50.894;16.714;2022-08-06T12:08:32;23.10;99.90
18175;DHT22;9212;50.894;16.714;2022-08-06T12:11:24;23.20;99.90
18175;DHT22;9212;50.894;16.714;2022-08-06T12:16:35;23.50;99.90
18175;DHT22;9212;50.894;16.714;2022-08-06T12:19:05;24.20;99.90
18175;DHT22;9212;50.894;16.714;2022-08-06T12:24:03;24.30;99.90
18175;DHT22;9212;50.894;16.714;2022-08-06T12:26:31;23.70;99.90
18175;DHT22;9212;50.894;16.714;2022-08-06T12:29:03;23.80;99.90
18175;DHT22;9212;50.894;16.714;2022-08-06T12:36:28;24.10;99.90
18175;DHT22;9212;50.894;16.714;2022-08-06T12:38:58;24.70;99.90
18175;DHT22;9212;50.894;16.714;2022-08-06T12:41:33;25.10;99.90
18175;DHT22;9212;50.894;16.714;2022-08-06T12:44:00;25.30;99.90
18175;DHT22;9212;50.894;16.714;2022-08-06T12:46:27;26.70;99.90
18175;DHT22;9212;50.894;16.714;2022-08-06T12:48:54;25.60;99.90
18175;DHT22;9212;50.894;16.714;2022-08-06T12:56:20;23.10;99.90
18175;DHT22;9212;50.894;16.714;2022-08-06T12:58:47;23.20;99.90
18175;DHT22;9212;50.894;16.714;2022-08-06T13:01:17;24.80;99.90
18175;DHT22;9212;50.894;16.714;2022-08-06T13:03:46;25.60;99.90
18175;DHT22;9212;50.894;16.714;2022-08-06T13:06:15;24.80;99.90
18175;DHT22;9212;50.894;16.714;2022-08-06T13:08:45;23.90;99.90
18175;DHT22;9212;50.894;16.714;2022-08-06T13:16:14;22.80;99.90
18175;DHT22;9212;50.894;16.714;2022-08-06T13:18:42;23.00;99.90
18175;DHT22;9212;50.894;16.714;2022-08-06T13:21:16;22.90;99.90
18175;DHT22;9212;50.894;16.714;2022-08-06T13:23:47;23.80;99.90
18175;DHT22;9212;50.894;16.714;2022-08-06T13:29:08;24.80;99.90
18175;DHT22;9212;50.894;16.714;2022-08-06T13:31:36;25.30;99.90
18175;DHT22;9212;50.894;16.714;2022-08-06T13:34:05;24.90;99.90
18175;DHT22;9212;50.894;16.714;2022-08-06T13:36:33;23.90;99.90
18175;DHT22;9212;50.894;16.714;2022-08-06T13:39:21;23.40;99.90
18175;DHT22;9212;50.894;16.714;2022-08-06T13:42:03;22.60;99.90
18175;DHT22;9212;50.894;16.714;2022-08-06T13:44:34;23.00;99.90
18175;DHT22;9212;50.894;16.714;2022-08-06T13:49:29;22.90;99.90
18175;DHT22;9212;50.894;16.714;2022-08-06T13:51:56;22.90;99.90
18175;DHT22;9212;50.894;16.714;2022-08-06T13:54:25;22.60;99.90
18175;DHT22;9212;50.894;16.714;2022-08-06T13:56:54;22.30;99.90
18175;DHT22;9212;50.894;16.714;2022-08-06T13:59:23;22.40;99.90
18175;DHT22;9212;50.894;16.714;2022-08-06T14:01:52;23.80;99.90
18175;DHT22;9212;50.894;16.714;2022-08-06T14:04:20;24.30;99.90
18175;DHT22;9212;50.894;16.714;2022-08-06T14:06:49;24.30;99.90
18175;DHT22;9212;50.894;16.714;2022-08-06T14:09:18;24.80;98.00
18175;DHT22;9212;50.894;16.714;2022-08-06T14:11:45;24.80;98.10
18175;DHT22;9212;50.894;16.714;2022-08-06T14:16:40;24.50;99.90
18175;DHT22;9212;50.894;16.714;2022-08-06T14:19:08;25.20;99.90
18175;DHT22;9212;50.894;16.714;2022-08-06T14:21:35;25.30;99.90
18175;DHT22;9212;50.894;16.714;2022-08-06T14:24:02;25.10;98.80
18175;DHT22;9212;50.894;16.714;2022-08-06T14:26:29;24.70;98.30
18175;DHT22;9212;50.894;16.714;2022-08-06T14:28:56;24.90;98.00
18175;DHT22;9212;50.894;16.714;2022-08-06T14:31:24;25.30;98.20
18175;DHT22;9212;50.894;16.714;2022-08-06T14:36:19;25.00;95.80
18175;DHT22;9212;50.894;16.714;2022-08-06T14:38:46;25.50;98.80
18175;DHT22;9212;50.894;16.714;2022-08-06T14:43:58;25.60;95.10
18175;DHT22;9212;50.894;16.714;2022-08-06T14:46:42;25.90;97.80
18175;DHT22;9212;50.894;16.714;2022-08-06T14:49:09;26.20;97.40
18175;DHT22;9212;50.894;16.714;2022-08-06T14:51:38;26.10;95.70
18175;DHT22;9212;50.894;16.714;2022-08-06T14:54:04;25.50;98.90
18175;DHT22;9212;50.894;16.714;2022-08-06T14:56:31;25.60;98.60
18175;DHT22;9212;50.894;16.714;2022-08-06T14:58:58;26.50;99.90
18175;DHT22;9212;50.894;16.714;2022-08-06T15:01:25;26.40;96.10
18175;DHT22;9212;50.894;16.714;2022-08-06T15:03:52;26.10;98.90
18175;DHT22;9212;50.894;16.714;2022-08-06T15:06:19;25.90;98.90
18175;DHT22;9212;50.894;16.714;2022-08-06T15:08:48;26.10;99.90
18175;DHT22;9212;50.894;16.714;2022-08-06T15:11:15;25.20;99.90
18175;DHT22;9212;50.894;16.714;2022-08-06T15:16:09;25.80;92.80
18175;DHT22;9212;50.894;16.714;2022-08-06T15:18:36;26.00;94.70
18175;DHT22;9212;50.894;16.714;2022-08-06T15:21:04;25.80;97.30
18175;DHT22;9212;50.894;16.714;2022-08-06T15:23:31;25.50;98.40
18175;DHT22;9212;50.894;16.714;2022-08-06T15:26:00;25.00;97.50
18175;DHT22;9212;50.894;16.714;2022-08-06T15:28:27;24.50;98.90
18175;DHT22;9212;50.894;16.714;2022-08-06T15:30:53;24.20;98.40
18175;DHT22;9212;50.894;16.714;2022-08-06T15:33:21;23.80;99.70
18175;DHT22;9212;50.894;16.714;2022-08-06T15:35:51;23.50;99.90
18175;DHT22;9212;50.894;16.714;2022-08-06T15:38:18;23.10;99.90
18175;DHT22;9212;50.894;16.714;2022-08-06T15:40:45;23.20;99.90
18175;DHT22;9212;50.894;16.714;2022-08-06T15:43:13;23.10;99.90
18175;DHT22;9212;50.894;16.714;2022-08-06T15:45:40;23.30;99.90
18175;DHT22;9212;50.894;16.714;2022-08-06T15:48:07;23.40;99.90
18175;DHT22;9212;50.894;16.714;2022-08-06T15:50:34;23.70;99.90
18175;DHT22;9212;50.894;16.714;2022-08-06T15:53:01;23.30;99.90
18175;DHT22;9212;50.894;16.714;2022-08-06T15:55:31;23.50;99.90
18175;DHT22;9212;50.894;16.714;2022-08-06T15:57:58;23.60;99.90
18175;DHT22;9212;50.894;16.714;2022-08-06T16:00:26;23.50;99.90
18175;DHT22;9212;50.894;16.714;2022-08-06T16:02:53;23.90;99.90
18175;DHT22;9212;50.894;16.714;2022-08-06T16:05:20;23.60;99.90
18175;DHT22;9212;50.894;16.714;2022-08-06T16:07:47;23.90;99.90
18175;DHT22;9212;50.894;16.714;2022-08-06T16:10:14;24.00;99.90
18175;DHT22;9212;50.894;16.714;2022-08-06T16:12:42;23.40;99.90
18175;DHT22;9212;50.894;16.714;2022-08-06T16:15:09;22.40;99.90
18175;DHT22;9212;50.894;16.714;2022-08-06T16:17:38;23.30;99.90
18175;DHT22;9212;50.894;16.714;2022-08-06T16:20:05;23.40;99.90
18175;DHT22;9212;50.894;16.714;2022-08-06T16:25:00;23.00;99.90
18175;DHT22;9212;50.894;16.714;2022-08-06T16:29:55;22.90;99.90
18175;DHT22;9212;50.894;16.714;2022-08-06T16:34:50;22.60;99.90
18175;DHT22;9212;50.894;16.714;2022-08-06T16:39:51;22.70;99.90
18175;DHT22;9212;50.894;16.714;2022-08-06T16:44:45;22.30;99.90
18175;DHT22;9212;50.894;16.714;2022-08-06T16:47:12;22.30;99.90
18175;DHT22;9212;50.894;16.714;2022-08-06T16:49:39;22.30;99.90
18175;DHT22;9212;50.894;16.714;2022-08-06T16:52:07;22.60;99.90
18175;DHT22;9212;50.894;16.714;2022-08-06T16:54:34;22.60;99.90
18175;DHT22;9212;50.894;16.714;2022-08-06T16:57:03;22.50;99.90
18175;DHT22;9212;50.894;16.714;2022-08-06T16:59:30;22.50;99.90
18175;DHT22;9212;50.894;16.714;2022-08-06T17:01:56;22.70;99.90
18175;DHT22;9212;50.894;16.714;2022-08-06T17:04:41;22.20;99.90